sensor_id;sensor_type;location;lat;lon;timestamp;pressure;altitude;pressure_sealevel;temperature;humidity
59831;BME280;45711;50.108;13.712;2022-11-20T00:00:10;97439.16;;;-3.78;94.05
59831;BME280;45711;50.108;13.712;2022-11-20T00:02:36;97439.34;;;-3.73;93.78
59831;BME280;45711;50.108;13.712;2022-11-20T00:05:01;97445.00;;;-3.63;92.87
59831;BME280;45711;50.108;13.712;2022-11-20T00:07:27;97444.19;;;-3.63;92.24
59831;BME280;45711;50.108;13.712;2022-11-20T00:09:52;97443.34;;;-3.84;93.04
59831;BME280;45711;50.108;13.712;2022-11-20T00:12:18;97441.34;;;-3.82;93.04
59831;BME280;45711;50.108;13.712;2022-11-20T00:14:44;97441.53;;;-3.83;93.22
59831;BME280;45711;50.108;13.712;2022-11-20T00:17:11;97447.97;;;-3.79;93.60
59831;BME280;45711;50.108;13.712;2022-11-20T00:19:37;97445.59;;;-3.74;92.15
59831;BME280;45711;50.108;13.712;2022-11-20T00:22:15;97452.63;;;-3.68;92.65
59831;BME280;45711;50.108;13.712;2022-11-20T00:24:41;97432.50;;;-3.81;93.34
59831;BME280;45711;50.108;13.712;2022-11-20T00:27:06;97443.53;;;-3.98;92.90
59831;BME280;45711;50.108;13.712;2022-11-20T00:29:32;97445.78;;;-3.75;91.41
59831;BME280;45711;50.108;13.712;2022-11-20T00:31:57;97443.94;;;-3.95;92.39
59831;BME280;45711;50.108;13.712;2022-11-20T00:34:24;97440.88;;;-4.05;92.99
59831;BME280;45711;50.108;13.712;2022-11-20T00:36:52;97447.59;;;-3.76;91.53
59831;BME280;45711;50.108;13.712;2022-11-20T00:39:18;97451.41;;;-3.85;91.48
59831;BME280;45711;50.108;13.712;2022-11-20T00:41:43;97448.44;;;-3.69;90.43
59831;BME280;45711;50.108;13.712;2022-11-20T00:44:09;97448.19;;;-3.81;91.99
59831;BME280;45711;50.108;13.712;2022-11-20T00:46:34;97453.03;;;-3.71;92.43
59831;BME280;45711;50.108;13.712;2022-11-20T00:49:00;97457.66;;;-3.66;91.14
59831;BME280;45711;50.108;13.712;2022-11-20T00:51:27;97462.09;;;-3.67;91.66
59831;BME280;45711;50.108;13.712;2022-11-20T00:53:55;97451.84;;;-3.62;90.72
59831;BME280;45711;50.108;13.712;2022-11-20T00:56:21;97453.47;;;-3.47;88.88
59831;BME280;45711;50.108;13.712;2022-11-20T00:58:47;97458.91;;;-3.49;88.66
59831;BME280;45711;50.108;13.712;2022-11-20T01:01:15;97459.09;;;-3.50;89.40
59831;BME280;45711;50.108;13.712;2022-11-20T01:03:43;97463.50;;;-3.64;89.34
59831;BME280;45711;50.108;13.712;2022-11-20T01:06:11;97466.91;;;-3.70;91.06
59831;BME280;45711;50.108;13.712;2022-11-20T01:08:39;97462.28;;;-3.75;90.70
59831;BME280;45711;50.108;13.712;2022-11-20T01:11:06;97467.34;;;-3.60;89.34
59831;BME280;45711;50.108;13.712;2022-11-20T01:13:33;97466.31;;;-3.72;90.48
59831;BME280;45711;50.108;13.712;2022-11-20T01:16:07;97472.31;;;-3.85;90.71
59831;BME280;45711;50.108;13.712;2022-11-20T01:18:36;97473.97;;;-3.64;91.29
59831;BME280;45711;50.108;13.712;2022-11-20T01:21:05;97467.16;;;-3.52;90.98
59831;BME280;45711;50.108;13.712;2022-11-20T01:23:35;97472.31;;;-2.46;89.25
59831;BME280;45711;50.108;13.712;2022-11-20T01:26:07;97461.53;;;-3.22;86.83
59831;BME280;45711;50.108;13.712;2022-11-20T01:28:33;97464.28;;;-3.70;89.45
59831;BME280;45711;50.108;13.712;2022-11-20T01:31:02;97468.78;;;-3.38;87.95
59831;BME280;45711;50.108;13.712;2022-11-20T01:33:36;97460.50;;;-3.55;88.74
59831;BME280;45711;50.108;13.712;2022-11-20T01:36:05;97460.53;;;-3.48;87.64
59831;BME280;45711;50.108;13.712;2022-11-20T01:38:31;97466.56;;;-2.94;87.33
59831;BME280;45711;50.108;13.712;2022-11-20T01:40:57;97451.22;;;-3.70;88.62
59831;BME280;45711;50.108;13.712;2022-11-20T01:43:25;97445.00;;;-3.10;92.59
59831;BME280;45711;50.108;13.712;2022-11-20T01:46:03;97439.78;;;-3.23;89.21
59831;BME280;45711;50.108;13.712;2022-11-20T01:48:33;97442.00;;;-3.20;87.50
59831;BME280;45711;50.108;13.712;2022-11-20T01:51:02;97435.34;;;-3.22;87.89
59831;BME280;45711;50.108;13.712;2022-11-20T01:53:33;97430.91;;;-3.48;88.25
59831;BME280;45711;50.108;13.712;2022-11-20T01:56:03;97424.47;;;-3.72;89.41
59831;BME280;45711;50.108;13.712;2022-11-20T01:58:38;97433.75;;;-3.63;89.35
59831;BME280;45711;50.108;13.712;2022-11-20T02:01:06;97422.25;;;-3.75;90.09
59831;BME280;45711;50.108;13.712;2022-11-20T02:03:32;97428.72;;;-3.58;89.54
59831;BME280;45711;50.108;13.712;2022-11-20T02:06:04;97428.50;;;-3.50;88.94
59831;BME280;45711;50.108;13.712;2022-11-20T02:08:32;97423.69;;;-3.40;89.68
59831;BME280;45711;50.108;13.712;2022-11-20T02:10:58;97425.28;;;-3.65;90.30
59831;BME280;45711;50.108;13.712;2022-11-20T02:13:24;97427.31;;;-3.47;89.69
59831;BME280;45711;50.108;13.712;2022-11-20T02:16:13;97418.88;;;-3.56;91.01
59831;BME280;45711;50.108;13.712;2022-11-20T02:18:40;97418.84;;;-3.69;91.11
59831;BME280;45711;50.108;13.712;2022-11-20T02:21:17;97416.44;;;-3.77;92.02
59831;BME280;45711;50.108;13.712;2022-11-20T02:24:04;97416.03;;;-3.55;90.66
59831;BME280;45711;50.108;13.712;2022-11-20T02:26:34;97420.88;;;-3.45;90.24
59831;BME280;45711;50.108;13.712;2022-11-20T02:29:03;97416.66;;;-3.39;91.26
59831;BME280;45711;50.108;13.712;2022-11-20T02:31:33;97420.47;;;-3.55;91.85
59831;BME280;45711;50.108;13.712;2022-11-20T02:33:59;97413.22;;;-3.53;90.77
59831;BME280;45711;50.108;13.712;2022-11-20T02:36:26;97411.19;;;-3.58;91.52
59831;BME280;45711;50.108;13.712;2022-11-20T02:38:53;97411.00;;;-3.76;91.02
59831;BME280;45711;50.108;13.712;2022-11-20T02:41:21;97406.78;;;-3.64;91.84
59831;BME280;45711;50.108;13.712;2022-11-20T02:43:55;97403.94;;;-3.62;92.16
59831;BME280;45711;50.108;13.712;2022-11-20T02:46:21;97402.75;;;-3.66;91.55
59831;BME280;45711;50.108;13.712;2022-11-20T02:48:46;97403.34;;;-3.44;92.05
59831;BME280;45711;50.108;13.712;2022-11-20T02:51:12;97396.09;;;-3.49;91.14
59831;BME280;45711;50.108;13.712;2022-11-20T02:53:38;97393.09;;;-3.33;90.87
59831;BME280;45711;50.108;13.712;2022-11-20T02:56:04;97394.91;;;-3.40;90.65
59831;BME280;45711;50.108;13.712;2022-11-20T02:58:31;97390.06;;;-3.36;90.90
59831;BME280;45711;50.108;13.712;2022-11-20T03:00:56;97395.09;;;-3.28;91.06
59831;BME280;45711;50.108;13.712;2022-11-20T03:03:22;97391.28;;;-3.25;91.23
59831;BME280;45711;50.108;13.712;2022-11-20T03:05:48;97385.44;;;-3.28;90.54
59831;BME280;45711;50.108;13.712;2022-11-20T03:08:13;97388.47;;;-3.17;89.57
59831;BME280;45711;50.108;13.712;2022-11-20T03:10:39;97382.81;;;-3.28;91.29
59831;BME280;45711;50.108;13.712;2022-11-20T03:13:04;97385.84;;;-3.24;91.68
59831;BME280;45711;50.108;13.712;2022-11-20T03:15:32;97384.03;;;-3.30;91.78
59831;BME280;45711;50.108;13.712;2022-11-20T03:17:57;97393.28;;;-3.08;90.92
59831;BME280;45711;50.108;13.712;2022-11-20T03:20:23;97395.47;;;-3.18;91.46
59831;BME280;45711;50.108;13.712;2022-11-20T03:22:49;97397.09;;;-3.23;90.73
59831;BME280;45711;50.108;13.712;2022-11-20T03:25:14;97407.56;;;-3.23;92.42
59831;BME280;45711;50.108;13.712;2022-11-20T03:27:40;97394.69;;;-3.18;92.73
59831;BME280;45711;50.108;13.712;2022-11-20T03:30:07;97393.88;;;-3.12;92.25
59831;BME280;45711;50.108;13.712;2022-11-20T03:32:34;97393.66;;;-3.11;91.76
59831;BME280;45711;50.108;13.712;2022-11-20T03:34:59;97395.88;;;-3.14;91.54
59831;BME280;45711;50.108;13.712;2022-11-20T03:37:25;97388.47;;;-3.17;91.76
59831;BME280;45711;50.108;13.712;2022-11-20T03:39:51;97387.22;;;-3.15;92.80
59831;BME280;45711;50.108;13.712;2022-11-20T03:42:16;97392.69;;;-3.16;92.37
59831;BME280;45711;50.108;13.712;2022-11-20T03:45:00;97399.91;;;-2.98;92.19
59831;BME280;45711;50.108;13.712;2022-11-20T03:47:26;97396.69;;;-3.07;91.50
59831;BME280;45711;50.108;13.712;2022-11-20T03:49:53;97390.03;;;-3.03;91.97
59831;BME280;45711;50.108;13.712;2022-11-20T03:52:18;97401.72;;;-2.99;91.82
59831;BME280;45711;50.108;13.712;2022-11-20T03:54:44;97403.91;;;-2.83;90.87
59831;BME280;45711;50.108;13.712;2022-11-20T03:57:09;97397.47;;;-2.93;91.90
59831;BME280;45711;50.108;13.712;2022-11-20T03:59:36;97398.28;;;-2.99;91.67
59831;BME280;45711;50.108;13.712;2022-11-20T04:02:02;97398.69;;;-3.03;92.51
59831;BME280;45711;50.108;13.712;2022-11-20T04:04:27;97393.06;;;-2.99;93.03
59831;BME280;45711;50.108;13.712;2022-11-20T04:06:54;97393.22;;;-2.88;92.60
59831;BME280;45711;50.108;13.712;2022-11-20T04:09:20;97395.06;;;-2.95;92.01
59831;BME280;45711;50.108;13.712;2022-11-20T04:11:45;97384.19;;;-3.05;92.24
59831;BME280;45711;50.108;13.712;2022-11-20T04:14:13;97387.41;;;-2.90;93.04
59831;BME280;45711;50.108;13.712;2022-11-20T04:16:39;97387.97;;;-2.81;93.44
59831;BME280;45711;50.108;13.712;2022-11-20T04:19:06;97376.69;;;-2.82;92.32
59831;BME280;45711;50.108;13.712;2022-11-20T04:21:34;97390.16;;;-2.65;90.17
59831;BME280;45711;50.108;13.712;2022-11-20T04:24:02;97387.75;;;-2.73;91.14
59831;BME280;45711;50.108;13.712;2022-11-20T04:26:28;97387.19;;;-2.82;91.11
59831;BME280;45711;50.108;13.712;2022-11-20T04:28:54;97373.69;;;-2.79;90.71
59831;BME280;45711;50.108;13.712;2022-11-20T04:31:22;97367.81;;;-2.81;91.21
59831;BME280;45711;50.108;13.712;2022-11-20T04:33:48;97368.00;;;-2.75;92.24
59831;BME280;45711;50.108;13.712;2022-11-20T04:36:16;97368.06;;;-2.89;91.76
59831;BME280;45711;50.108;13.712;2022-11-20T04:38:42;97367.41;;;-2.78;91.32
59831;BME280;45711;50.108;13.712;2022-11-20T04:41:14;97370.22;;;-2.72;90.17
59831;BME280;45711;50.108;13.712;2022-11-20T04:43:40;97367.25;;;-2.89;91.59
59831;BME280;45711;50.108;13.712;2022-11-20T04:46:06;97362.41;;;-2.86;91.43
59831;BME280;45711;50.108;13.712;2022-11-20T04:48:31;97366.00;;;-2.80;91.36
59831;BME280;45711;50.108;13.712;2022-11-20T04:51:02;97375.91;;;-2.89;91.19
59831;BME280;45711;50.108;13.712;2022-11-20T04:53:29;97356.38;;;-2.93;91.30
59831;BME280;45711;50.108;13.712;2022-11-20T04:55:59;97363.22;;;-2.85;91.08
59831;BME280;45711;50.108;13.712;2022-11-20T04:58:26;97366.63;;;-2.85;90.77
59831;BME280;45711;50.108;13.712;2022-11-20T05:00:52;97367.59;;;-2.72;91.77
59831;BME280;45711;50.108;13.712;2022-11-20T05:03:18;97371.47;;;-2.82;92.44
59831;BME280;45711;50.108;13.712;2022-11-20T05:05:43;97374.03;;;-2.75;92.13
59831;BME280;45711;50.108;13.712;2022-11-20T05:08:09;97371.84;;;-2.78;92.15
59831;BME280;45711;50.108;13.712;2022-11-20T05:10:35;97375.47;;;-2.72;92.61
59831;BME280;45711;50.108;13.712;2022-11-20T05:13:00;97371.66;;;-2.83;92.17
59831;BME280;45711;50.108;13.712;2022-11-20T05:15:27;97374.44;;;-2.71;92.48
59831;BME280;45711;50.108;13.712;2022-11-20T05:17:55;97382.28;;;-2.71;92.35
59831;BME280;45711;50.108;13.712;2022-11-20T05:20:21;97384.84;;;-2.51;91.40
59831;BME280;45711;50.108;13.712;2022-11-20T05:22:46;97389.13;;;-2.70;92.36
59831;BME280;45711;50.108;13.712;2022-11-20T05:25:12;97383.72;;;-2.75;93.29
59831;BME280;45711;50.108;13.712;2022-11-20T05:27:37;97380.88;;;-2.67;92.67
59831;BME280;45711;50.108;13.712;2022-11-20T05:30:04;97373.25;;;-2.75;92.49
59831;BME280;45711;50.108;13.712;2022-11-20T05:32:31;97379.44;;;-2.63;92.36
59831;BME280;45711;50.108;13.712;2022-11-20T05:34:57;97383.28;;;-2.59;91.45
59831;BME280;45711;50.108;13.712;2022-11-20T05:37:22;97384.50;;;-2.68;92.58
59831;BME280;45711;50.108;13.712;2022-11-20T05:39:48;97378.47;;;-2.69;93.05
59831;BME280;45711;50.108;13.712;2022-11-20T05:42:16;97375.25;;;-2.71;92.74
59831;BME280;45711;50.108;13.712;2022-11-20T05:44:57;97371.75;;;-2.51;91.18
59831;BME280;45711;50.108;13.712;2022-11-20T05:47:23;97370.56;;;-2.62;92.42
59831;BME280;45711;50.108;13.712;2022-11-20T05:49:59;97362.78;;;-2.75;93.11
59831;BME280;45711;50.108;13.712;2022-11-20T05:52:39;97367.56;;;-2.59;92.39
59831;BME280;45711;50.108;13.712;2022-11-20T05:55:05;97363.44;;;-2.42;90.03
59831;BME280;45711;50.108;13.712;2022-11-20T05:57:31;97365.31;;;-2.56;90.99
59831;BME280;45711;50.108;13.712;2022-11-20T06:00:07;97369.53;;;-2.48;91.31
59831;BME280;45711;50.108;13.712;2022-11-20T06:02:34;97365.50;;;-2.50;90.27
59831;BME280;45711;50.108;13.712;2022-11-20T06:05:02;97375.38;;;-2.53;91.01
59831;BME280;45711;50.108;13.712;2022-11-20T06:07:28;97373.75;;;-2.54;92.49
59831;BME280;45711;50.108;13.712;2022-11-20T06:09:54;97373.19;;;-2.56;90.92
59831;BME280;45711;50.108;13.712;2022-11-20T06:15:11;97359.78;;;-2.86;92.35
59831;BME280;45711;50.108;13.712;2022-11-20T06:18:29;97353.88;;;-2.68;90.98
59831;BME280;45711;50.108;13.712;2022-11-20T06:20:39;97346.59;;;-2.59;90.80
59831;BME280;45711;50.108;13.712;2022-11-20T06:23:05;97343.19;;;-2.60;91.50
59831;BME280;45711;50.108;13.712;2022-11-20T06:25:37;97326.81;;;-2.55;91.54
59831;BME280;45711;50.108;13.712;2022-11-20T06:28:03;97310.13;;;-2.61;91.54
59831;BME280;45711;50.108;13.712;2022-11-20T06:30:28;97302.47;;;-2.62;92.51
59831;BME280;45711;50.108;13.712;2022-11-20T06:32:54;97305.25;;;-2.57;91.56
59831;BME280;45711;50.108;13.712;2022-11-20T06:35:24;97320.34;;;-2.53;91.50
59831;BME280;45711;50.108;13.712;2022-11-20T06:37:59;97334.28;;;-2.59;92.54
59831;BME280;45711;50.108;13.712;2022-11-20T06:40:24;97338.88;;;-2.47;92.03
59831;BME280;45711;50.108;13.712;2022-11-20T06:42:50;97350.94;;;-2.40;90.55
59831;BME280;45711;50.108;13.712;2022-11-20T06:45:16;97353.19;;;-2.50;92.74
59831;BME280;45711;50.108;13.712;2022-11-20T06:47:52;97341.34;;;-2.59;92.72
59831;BME280;45711;50.108;13.712;2022-11-20T06:50:18;97340.56;;;-2.60;92.77
59831;BME280;45711;50.108;13.712;2022-11-20T06:52:44;97348.81;;;-2.56;92.38
59831;BME280;45711;50.108;13.712;2022-11-20T06:55:11;97351.66;;;-2.64;92.18
59831;BME280;45711;50.108;13.712;2022-11-20T06:57:36;97347.03;;;-2.69;92.13
59831;BME280;45711;50.108;13.712;2022-11-20T07:00:03;97355.44;;;-2.54;92.90
59831;BME280;45711;50.108;13.712;2022-11-20T07:02:29;97353.88;;;-2.61;92.94
59831;BME280;45711;50.108;13.712;2022-11-20T07:04:54;97346.53;;;-2.46;93.53
59831;BME280;45711;50.108;13.712;2022-11-20T07:07:20;97352.97;;;-2.42;93.00
59831;BME280;45711;50.108;13.712;2022-11-20T07:09:45;97356.31;;;-2.28;93.27
59831;BME280;45711;50.108;13.712;2022-11-20T07:12:16;97355.50;;;-2.29;91.71
59831;BME280;45711;50.108;13.712;2022-11-20T07:14:41;97351.00;;;-2.15;90.93
59831;BME280;45711;50.108;13.712;2022-11-20T07:17:08;97347.41;;;-2.20;90.90
59831;BME280;45711;50.108;13.712;2022-11-20T07:19:37;97352.28;;;-1.67;89.37
59831;BME280;45711;50.108;13.712;2022-11-20T07:22:04;97353.06;;;-2.23;90.32
59831;BME280;45711;50.108;13.712;2022-11-20T07:24:29;97357.91;;;-2.27;91.44
59831;BME280;45711;50.108;13.712;2022-11-20T07:26:55;97352.25;;;-2.17;89.78
59831;BME280;45711;50.108;13.712;2022-11-20T07:29:22;97359.81;;;-2.09;89.85
59831;BME280;45711;50.108;13.712;2022-11-20T07:31:48;97355.41;;;-2.09;90.48
59831;BME280;45711;50.108;13.712;2022-11-20T07:34:16;97353.34;;;-2.00;88.92
59831;BME280;45711;50.108;13.712;2022-11-20T07:36:41;97343.75;;;-2.13;88.89
59831;BME280;45711;50.108;13.712;2022-11-20T07:39:08;97349.53;;;-2.04;89.11
59831;BME280;45711;50.108;13.712;2022-11-20T07:41:34;97333.25;;;-2.13;90.24
59831;BME280;45711;50.108;13.712;2022-11-20T07:43:59;97334.22;;;-2.07;90.34
59831;BME280;45711;50.108;13.712;2022-11-20T07:46:26;97332.63;;;-2.08;90.26
59831;BME280;45711;50.108;13.712;2022-11-20T07:48:52;97328.03;;;-1.63;90.00
59831;BME280;45711;50.108;13.712;2022-11-20T07:51:17;97338.03;;;-1.28;88.57
59831;BME280;45711;50.108;13.712;2022-11-20T07:53:43;97334.19;;;-1.75;88.95
59831;BME280;45711;50.108;13.712;2022-11-20T07:56:08;97339.91;;;-1.85;90.86
59831;BME280;45711;50.108;13.712;2022-11-20T07:58:34;97334.69;;;-1.60;90.55
59831;BME280;45711;50.108;13.712;2022-11-20T08:01:04;97338.59;;;-2.01;90.02
59831;BME280;45711;50.108;13.712;2022-11-20T08:03:34;97345.97;;;-1.85;88.97
59831;BME280;45711;50.108;13.712;2022-11-20T08:06:03;97327.81;;;-1.86;89.45
59831;BME280;45711;50.108;13.712;2022-11-20T08:08:29;97323.56;;;-2.12;90.07
59831;BME280;45711;50.108;13.712;2022-11-20T08:10:59;97327.28;;;-1.95;89.25
59831;BME280;45711;50.108;13.712;2022-11-20T08:13:43;97322.88;;;-2.01;89.88
59831;BME280;45711;50.108;13.712;2022-11-20T08:16:28;97322.13;;;-2.08;90.07
59831;BME280;45711;50.108;13.712;2022-11-20T08:18:58;97320.41;;;-2.28;91.12
59831;BME280;45711;50.108;13.712;2022-11-20T08:21:45;97314.69;;;-2.11;91.99
59831;BME280;45711;50.108;13.712;2022-11-20T08:24:11;97318.56;;;-1.89;90.61
59831;BME280;45711;50.108;13.712;2022-11-20T08:26:42;97311.81;;;-1.78;90.33
59831;BME280;45711;50.108;13.712;2022-11-20T08:29:08;97318.63;;;-1.95;90.08
59831;BME280;45711;50.108;13.712;2022-11-20T08:31:33;97315.94;;;-1.89;91.02
59831;BME280;45711;50.108;13.712;2022-11-20T08:34:01;97314.66;;;-1.80;90.80
59831;BME280;45711;50.108;13.712;2022-11-20T08:36:27;97323.16;;;-1.84;90.65
59831;BME280;45711;50.108;13.712;2022-11-20T08:38:55;97312.28;;;-1.88;90.49
59831;BME280;45711;50.108;13.712;2022-11-20T08:41:22;97301.69;;;-1.74;91.61
59831;BME280;45711;50.108;13.712;2022-11-20T08:43:55;97300.56;;;-1.60;90.70
59831;BME280;45711;50.108;13.712;2022-11-20T08:46:23;97301.31;;;-1.53;89.79
59831;BME280;45711;50.108;13.712;2022-11-20T08:48:56;97308.53;;;-1.48;89.19
59831;BME280;45711;50.108;13.712;2022-11-20T08:51:23;97306.56;;;-1.53;90.64
59831;BME280;45711;50.108;13.712;2022-11-20T08:53:48;97323.44;;;-1.67;90.81
59831;BME280;45711;50.108;13.712;2022-11-20T08:56:14;97318.44;;;-1.75;91.26
59831;BME280;45711;50.108;13.712;2022-11-20T08:58:42;97301.25;;;-1.71;91.54
59831;BME280;45711;50.108;13.712;2022-11-20T09:01:07;97295.34;;;-1.60;90.59
59831;BME280;45711;50.108;13.712;2022-11-20T09:03:33;97295.22;;;-1.29;89.74
59831;BME280;45711;50.108;13.712;2022-11-20T09:06:03;97295.41;;;-1.48;90.02
59831;BME280;45711;50.108;13.712;2022-11-20T09:08:30;97296.22;;;-1.48;90.42
59831;BME280;45711;50.108;13.712;2022-11-20T09:10:57;97301.28;;;-1.28;90.42
59831;BME280;45711;50.108;13.712;2022-11-20T09:13:24;97305.78;;;-1.35;90.64
59831;BME280;45711;50.108;13.712;2022-11-20T09:15:53;97299.38;;;-1.39;90.44
59831;BME280;45711;50.108;13.712;2022-11-20T09:18:19;97303.44;;;-1.43;89.95
59831;BME280;45711;50.108;13.712;2022-11-20T09:20:44;97296.53;;;-1.38;90.21
59831;BME280;45711;50.108;13.712;2022-11-20T09:23:10;97295.75;;;-1.20;91.20
59831;BME280;45711;50.108;13.712;2022-11-20T09:25:37;97301.22;;;-1.21;90.08
59831;BME280;45711;50.108;13.712;2022-11-20T09:28:03;97285.94;;;-1.31;89.56
59831;BME280;45711;50.108;13.712;2022-11-20T09:30:28;97289.31;;;-1.24;89.24
59831;BME280;45711;50.108;13.712;2022-11-20T09:32:54;97289.34;;;-1.49;90.44
59831;BME280;45711;50.108;13.712;2022-11-20T09:35:20;97292.50;;;-1.22;89.19
59831;BME280;45711;50.108;13.712;2022-11-20T09:37:45;97294.28;;;-1.16;89.57
59831;BME280;45711;50.108;13.712;2022-11-20T09:40:19;97285.97;;;-1.13;90.18
59831;BME280;45711;50.108;13.712;2022-11-20T09:42:47;97293.19;;;-1.08;88.75
59831;BME280;45711;50.108;13.712;2022-11-20T09:45:23;97285.38;;;-0.96;88.27
59831;BME280;45711;50.108;13.712;2022-11-20T09:48:07;97293.59;;;-0.56;89.21
59831;BME280;45711;50.108;13.712;2022-11-20T09:50:45;97294.03;;;-0.96;88.41
59831;BME280;45711;50.108;13.712;2022-11-20T09:53:18;97297.41;;;-0.89;87.97
59831;BME280;45711;50.108;13.712;2022-11-20T09:55:48;97293.34;;;-1.03;88.75
59831;BME280;45711;50.108;13.712;2022-11-20T09:58:24;97285.81;;;-1.18;89.10
59831;BME280;45711;50.108;13.712;2022-11-20T10:00:51;97271.66;;;-0.98;88.90
59831;BME280;45711;50.108;13.712;2022-11-20T10:03:21;97272.16;;;-0.90;88.30
59831;BME280;45711;50.108;13.712;2022-11-20T10:05:54;97282.94;;;-0.80;88.93
59831;BME280;45711;50.108;13.712;2022-11-20T10:08:22;97278.81;;;-1.06;89.71
59831;BME280;45711;50.108;13.712;2022-11-20T10:10:52;97264.69;;;-0.74;88.58
59831;BME280;45711;50.108;13.712;2022-11-20T10:13:34;97269.94;;;-0.56;89.93
59831;BME280;45711;50.108;13.712;2022-11-20T10:16:12;97270.63;;;-0.79;88.52
59831;BME280;45711;50.108;13.712;2022-11-20T10:18:51;97258.88;;;-0.77;89.56
59831;BME280;45711;50.108;13.712;2022-11-20T10:21:28;97254.47;;;-0.64;87.84
59831;BME280;45711;50.108;13.712;2022-11-20T10:24:41;97252.34;;;-0.44;87.83
59831;BME280;45711;50.108;13.712;2022-11-20T10:30:24;97244.69;;;-0.45;87.45
59831;BME280;45711;50.108;13.712;2022-11-20T10:32:54;97232.09;;;-0.02;87.48
59831;BME280;45711;50.108;13.712;2022-11-20T10:35:26;97234.91;;;-0.38;86.80
59831;BME280;45711;50.108;13.712;2022-11-20T10:37:57;97239.94;;;-0.37;87.31
59831;BME280;45711;50.108;13.712;2022-11-20T10:40:30;97236.53;;;-0.14;86.55
59831;BME280;45711;50.108;13.712;2022-11-20T10:42:59;97241.03;;;-0.44;88.01
59831;BME280;45711;50.108;13.712;2022-11-20T10:45:42;97238.34;;;-0.38;88.22
59831;BME280;45711;50.108;13.712;2022-11-20T10:48:14;97244.63;;;-0.69;87.92
59831;BME280;45711;50.108;13.712;2022-11-20T10:50:59;97248.44;;;-0.53;88.71
59831;BME280;45711;50.108;13.712;2022-11-20T10:53:56;97242.50;;;-0.60;88.67
59831;BME280;45711;50.108;13.712;2022-11-20T10:56:33;97240.63;;;-0.30;87.86
59831;BME280;45711;50.108;13.712;2022-11-20T10:59:31;97246.03;;;-0.55;89.00
59831;BME280;45711;50.108;13.712;2022-11-20T11:05:50;97226.59;;;-0.12;87.78
59831;BME280;45711;50.108;13.712;2022-11-20T11:08:26;97222.88;;;0.31;88.36
59831;BME280;45711;50.108;13.712;2022-11-20T11:10:55;97220.34;;;0.24;87.78
59831;BME280;45711;50.108;13.712;2022-11-20T11:13:25;97214.63;;;0.28;86.82
59831;BME280;45711;50.108;13.712;2022-11-20T11:18:33;97235.13;;;1.58;85.28
59831;BME280;45711;50.108;13.712;2022-11-20T11:21:02;97239.78;;;0.47;85.44
59831;BME280;45711;50.108;13.712;2022-11-20T11:23:32;97237.09;;;0.94;86.73
59831;BME280;45711;50.108;13.712;2022-11-20T11:26:00;97223.78;;;0.48;85.54
59831;BME280;45711;50.108;13.712;2022-11-20T11:28:27;97221.00;;;0.55;87.86
59831;BME280;45711;50.108;13.712;2022-11-20T11:30:54;97226.88;;;0.97;87.46
59831;BME280;45711;50.108;13.712;2022-11-20T11:33:24;97210.91;;;0.75;87.43
59831;BME280;45711;50.108;13.712;2022-11-20T11:35:51;97209.31;;;0.74;87.48
59831;BME280;45711;50.108;13.712;2022-11-20T11:38:22;97211.72;;;0.64;87.36
59831;BME280;45711;50.108;13.712;2022-11-20T11:40:52;97196.31;;;0.44;87.54
59831;BME280;45711;50.108;13.712;2022-11-20T11:43:23;97199.91;;;0.79;87.58
59831;BME280;45711;50.108;13.712;2022-11-20T11:46:28;97192.25;;;1.06;87.22
59831;BME280;45711;50.108;13.712;2022-11-20T11:49:01;97192.81;;;0.79;86.74
59831;BME280;45711;50.108;13.712;2022-11-20T11:51:36;97180.72;;;0.55;87.87
59831;BME280;45711;50.108;13.712;2022-11-20T11:54:15;97183.88;;;0.80;86.86
59831;BME280;45711;50.108;13.712;2022-11-20T11:56:44;97177.97;;;0.49;86.80
59831;BME280;45711;50.108;13.712;2022-11-20T11:59:15;97172.78;;;0.66;88.38
59831;BME280;45711;50.108;13.712;2022-11-20T12:01:48;97155.69;;;0.29;89.32
59831;BME280;45711;50.108;13.712;2022-11-20T12:04:32;97169.81;;;1.03;88.62
59831;BME280;45711;50.108;13.712;2022-11-20T12:07:08;97162.53;;;0.53;86.75
59831;BME280;45711;50.108;13.712;2022-11-20T12:09:41;97171.59;;;1.14;87.87
59831;BME280;45711;50.108;13.712;2022-11-20T12:12:11;97167.69;;;1.62;85.26
59831;BME280;45711;50.108;13.712;2022-11-20T12:14:41;97150.13;;;0.65;85.44
59831;BME280;45711;50.108;13.712;2022-11-20T12:17:10;97132.47;;;0.25;88.99
59831;BME280;45711;50.108;13.712;2022-11-20T12:19:36;97153.22;;;0.91;87.73
59831;BME280;45711;50.108;13.712;2022-11-20T12:22:10;97142.75;;;0.79;87.01
59831;BME280;45711;50.108;13.712;2022-11-20T12:24:52;97151.81;;;0.71;87.52
59831;BME280;45711;50.108;13.712;2022-11-20T12:27:50;97153.69;;;0.59;89.12
59831;BME280;45711;50.108;13.712;2022-11-20T12:30:19;97162.38;;;1.29;86.43
59831;BME280;45711;50.108;13.712;2022-11-20T12:35:52;97152.19;;;1.49;86.01
59831;BME280;45711;50.108;13.712;2022-11-20T12:38:37;97153.31;;;0.67;87.63
59831;BME280;45711;50.108;13.712;2022-11-20T12:41:10;97158.06;;;0.54;88.73
59831;BME280;45711;50.108;13.712;2022-11-20T12:43:41;97158.50;;;0.91;86.53
59831;BME280;45711;50.108;13.712;2022-11-20T12:46:33;97163.91;;;0.44;88.94
59831;BME280;45711;50.108;13.712;2022-11-20T12:49:12;97160.44;;;0.67;89.66
59831;BME280;45711;50.108;13.712;2022-11-20T12:51:55;97156.44;;;0.93;89.11
59831;BME280;45711;50.108;13.712;2022-11-20T12:54:45;97155.44;;;0.54;89.90
59831;BME280;45711;50.108;13.712;2022-11-20T12:57:21;97147.53;;;0.82;90.04
59831;BME280;45711;50.108;13.712;2022-11-20T13:00:01;97134.22;;;1.17;88.63
59831;BME280;45711;50.108;13.712;2022-11-20T13:02:34;97127.06;;;0.84;88.36
59831;BME280;45711;50.108;13.712;2022-11-20T13:05:19;97119.47;;;0.88;89.17
59831;BME280;45711;50.108;13.712;2022-11-20T13:07:47;97138.50;;;1.52;86.38
59831;BME280;45711;50.108;13.712;2022-11-20T13:10:18;97133.00;;;1.08;87.80
59831;BME280;45711;50.108;13.712;2022-11-20T13:12:51;97127.34;;;0.59;88.68
59831;BME280;45711;50.108;13.712;2022-11-20T13:15:31;97135.13;;;0.66;88.72
59831;BME280;45711;50.108;13.712;2022-11-20T13:18:00;97115.59;;;0.50;90.07
59831;BME280;45711;50.108;13.712;2022-11-20T13:20:28;97109.72;;;0.60;90.29